sensor_id;sensor_type;location;lat;lon;timestamp;P1;durP1;ratioP1;P2;durP2;ratioP2
59294;SDS011;45067;44.654;20.200;2022-09-20T00:01:28;15.95;;;9.30;;
59294;SDS011;45067;44.654;20.200;2022-09-20T00:06:59;14.48;;;9.68;;
59294;SDS011;45067;44.654;20.200;2022-09-20T00:09:25;23.75;;;9.50;;
59294;SDS011;45067;44.654;20.200;2022-09-20T00:11:52;20.42;;;10.90;;
59294;SDS011;45067;44.654;20.200;2022-09-20T00:14:18;18.63;;;10.38;;
59294;SDS011;45067;44.654;20.200;2022-09-20T00:16:44;17.65;;;11.10;;
59294;SDS011;45067;44.654;20.200;2022-09-20T00:19:14;19.40;;;11.15;;
59294;SDS011;45067;44.654;20.200;2022-09-20T00:21:41;16.20;;;10.05;;
59294;SDS011;45067;44.654;20.200;2022-09-20T00:24:08;20.85;;;11.07;;
59294;SDS011;45067;44.654;20.200;2022-09-20T00:26:34;15.82;;;10.50;;
59294;SDS011;45067;44.654;20.200;2022-09-20T00:29:00;17.90;;;9.63;;
59294;SDS011;45067;44.654;20.200;2022-09-20T00:31:26;16.95;;;9.98;;
59294;SDS011;45067;44.654;20.200;2022-09-20T00:36:56;16.85;;;9.88;;
59294;SDS011;45067;44.654;20.200;2022-09-20T00:39:23;16.80;;;10.52;;
59294;SDS011;45067;44.654;20.200;2022-09-20T00:41:49;15.25;;;10.10;;
59294;SDS011;45067;44.654;20.200;2022-09-20T00:46:59;16.33;;;10.65;;
59294;SDS011;45067;44.654;20.200;2022-09-20T00:49:26;18.23;;;10.77;;
59294;SDS011;45067;44.654;20.200;2022-09-20T00:51:54;18.52;;;10.20;;
59294;SDS011;45067;44.654;20.200;2022-09-20T00:54:22;15.05;;;10.32;;
59294;SDS011;45067;44.654;20.200;2022-09-20T00:56:48;16.17;;;9.60;;
59294;SDS011;45067;44.654;20.200;2022-09-20T00:59:16;16.05;;;10.38;;
59294;SDS011;45067;44.654;20.200;2022-09-20T01:01:44;18.98;;;10.73;;
59294;SDS011;45067;44.654;20.200;2022-09-20T01:07:51;16.67;;;9.80;;
59294;SDS011;45067;44.654;20.200;2022-09-20T01:10:19;16.13;;;10.25;;
59294;SDS011;45067;44.654;20.200;2022-09-20T01:12:45;17.60;;;10.70;;
59294;SDS011;45067;44.654;20.200;2022-09-20T01:15:12;16.98;;;10.27;;
59294;SDS011;45067;44.654;20.200;2022-09-20T01:17:42;19.95;;;11.43;;
59294;SDS011;45067;44.654;20.200;2022-09-20T01:20:10;17.08;;;10.38;;
59294;SDS011;45067;44.654;20.200;2022-09-20T01:25:17;17.17;;;10.38;;
59294;SDS011;45067;44.654;20.200;2022-09-20T01:27:49;18.17;;;11.60;;
59294;SDS011;45067;44.654;20.200;2022-09-20T01:30:17;16.60;;;10.45;;
59294;SDS011;45067;44.654;20.200;2022-09-20T01:35:40;18.75;;;10.90;;
59294;SDS011;45067;44.654;20.200;2022-09-20T01:38:16;17.25;;;10.30;;
59294;SDS011;45067;44.654;20.200;2022-09-20T01:40:54;15.38;;;10.95;;
59294;SDS011;45067;44.654;20.200;2022-09-20T01:45:54;16.73;;;11.10;;
59294;SDS011;45067;44.654;20.200;2022-09-20T01:48:36;19.15;;;9.90;;
59294;SDS011;45067;44.654;20.200;2022-09-20T01:56:19;16.27;;;9.23;;
59294;SDS011;45067;44.654;20.200;2022-09-20T02:07:00;18.75;;;9.88;;
59294;SDS011;45067;44.654;20.200;2022-09-20T02:14:43;15.25;;;9.63;;
59294;SDS011;45067;44.654;20.200;2022-09-20T02:20:30;15.68;;;10.13;;
59294;SDS011;45067;44.654;20.200;2022-09-20T02:36:33;15.15;;;9.10;;
59294;SDS011;45067;44.654;20.200;2022-09-20T02:41:55;16.63;;;10.15;;
59294;SDS011;45067;44.654;20.200;2022-09-20T03:00:54;14.13;;;9.32;;
59294;SDS011;45067;44.654;20.200;2022-09-20T03:03:38;15.13;;;9.35;;
59294;SDS011;45067;44.654;20.200;2022-09-20T03:11:07;14.10;;;8.82;;
59294;SDS011;45067;44.654;20.200;2022-09-20T03:26:19;14.50;;;7.78;;
59294;SDS011;45067;44.654;20.200;2022-09-20T03:29:01;11.80;;;7.32;;
59294;SDS011;45067;44.654;20.200;2022-09-20T03:36:40;11.73;;;6.80;;
59294;SDS011;45067;44.654;20.200;2022-09-20T03:42:07;9.95;;;6.32;;
59294;SDS011;45067;44.654;20.200;2022-09-20T03:58:04;11.80;;;6.30;;
59294;SDS011;45067;44.654;20.200;2022-09-20T04:08:46;8.55;;;5.40;;
59294;SDS011;45067;44.654;20.200;2022-09-20T04:13:43;10.02;;;5.68;;
59294;SDS011;45067;44.654;20.200;2022-09-20T04:24:10;11.82;;;5.85;;
59294;SDS011;45067;44.654;20.200;2022-09-20T04:26:41;9.82;;;5.63;;
59294;SDS011;45067;44.654;20.200;2022-09-20T04:29:30;8.60;;;5.15;;
59294;SDS011;45067;44.654;20.200;2022-09-20T04:32:03;9.00;;;5.50;;
59294;SDS011;45067;44.654;20.200;2022-09-20T04:37:36;9.75;;;4.88;;
59294;SDS011;45067;44.654;20.200;2022-09-20T04:55:20;9.80;;;5.57;;
59294;SDS011;45067;44.654;20.200;2022-09-20T05:03:25;9.13;;;4.43;;
59294;SDS011;45067;44.654;20.200;2022-09-20T05:08:37;10.30;;;5.57;;
59294;SDS011;45067;44.654;20.200;2022-09-20T05:11:17;7.00;;;5.28;;
59294;SDS011;45067;44.654;20.200;2022-09-20T05:14:15;9.82;;;5.05;;
59294;SDS011;45067;44.654;20.200;2022-09-20T05:21:58;12.02;;;5.60;;
59294;SDS011;45067;44.654;20.200;2022-09-20T05:27:09;11.45;;;6.18;;
59294;SDS011;45067;44.654;20.200;2022-09-20T05:32:21;14.35;;;7.57;;
59294;SDS011;45067;44.654;20.200;2022-09-20T05:34:51;21.20;;;7.80;;
59294;SDS011;45067;44.654;20.200;2022-09-20T05:45:32;11.85;;;6.78;;
59294;SDS011;45067;44.654;20.200;2022-09-20T05:51:32;16.40;;;7.10;;
59294;SDS011;45067;44.654;20.200;2022-09-20T05:59:31;10.88;;;5.80;;
59294;SDS011;45067;44.654;20.200;2022-09-20T06:02:05;11.25;;;5.95;;
59294;SDS011;45067;44.654;20.200;2022-09-20T06:12:59;11.50;;;7.75;;
59294;SDS011;45067;44.654;20.200;2022-09-20T06:15:31;12.35;;;7.75;;
59294;SDS011;45067;44.654;20.200;2022-09-20T06:18:12;12.50;;;8.38;;
59294;SDS011;45067;44.654;20.200;2022-09-20T06:23:24;14.63;;;8.45;;
59294;SDS011;45067;44.654;20.200;2022-09-20T06:25:55;18.75;;;8.20;;
59294;SDS011;45067;44.654;20.200;2022-09-20T06:28:34;24.52;;;8.02;;
59294;SDS011;45067;44.654;20.200;2022-09-20T06:31:02;14.23;;;7.38;;
59294;SDS011;45067;44.654;20.200;2022-09-20T06:33:31;11.05;;;6.82;;
59294;SDS011;45067;44.654;20.200;2022-09-20T06:39:27;14.80;;;7.18;;
59294;SDS011;45067;44.654;20.200;2022-09-20T06:42:13;11.90;;;7.22;;
59294;SDS011;45067;44.654;20.200;2022-09-20T06:44:39;13.55;;;7.15;;
59294;SDS011;45067;44.654;20.200;2022-09-20T06:47:10;12.10;;;7.03;;
59294;SDS011;45067;44.654;20.200;2022-09-20T06:49:37;11.98;;;6.32;;
59294;SDS011;45067;44.654;20.200;2022-09-20T06:52:14;18.75;;;7.00;;
59294;SDS011;45067;44.654;20.200;2022-09-20T06:54:42;13.98;;;7.10;;
59294;SDS011;45067;44.654;20.200;2022-09-20T06:57:10;9.88;;;6.00;;
59294;SDS011;45067;44.654;20.200;2022-09-20T06:59:36;12.45;;;6.78;;
59294;SDS011;45067;44.654;20.200;2022-09-20T07:02:03;13.18;;;6.80;;
59294;SDS011;45067;44.654;20.200;2022-09-20T07:04:29;11.07;;;6.72;;
59294;SDS011;45067;44.654;20.200;2022-09-20T07:07:00;9.10;;;5.43;;
59294;SDS011;45067;44.654;20.200;2022-09-20T07:09:26;9.33;;;6.27;;
59294;SDS011;45067;44.654;20.200;2022-09-20T07:11:52;12.43;;;6.40;;
59294;SDS011;45067;44.654;20.200;2022-09-20T07:14:21;7.97;;;5.60;;
59294;SDS011;45067;44.654;20.200;2022-09-20T07:16:47;8.85;;;6.13;;
59294;SDS011;45067;44.654;20.200;2022-09-20T07:19:13;11.30;;;6.30;;
59294;SDS011;45067;44.654;20.200;2022-09-20T07:21:40;12.25;;;5.97;;
59294;SDS011;45067;44.654;20.200;2022-09-20T07:24:06;10.15;;;5.75;;
59294;SDS011;45067;44.654;20.200;2022-09-20T07:26:32;10.75;;;5.70;;
59294;SDS011;45067;44.654;20.200;2022-09-20T07:28:59;10.02;;;5.43;;
59294;SDS011;45067;44.654;20.200;2022-09-20T07:31:26;10.75;;;5.78;;
59294;SDS011;45067;44.654;20.200;2022-09-20T07:33:52;12.30;;;5.45;;
59294;SDS011;45067;44.654;20.200;2022-09-20T07:36:19;12.00;;;5.85;;
59294;SDS011;45067;44.654;20.200;2022-09-20T07:38:49;7.97;;;4.80;;
59294;SDS011;45067;44.654;20.200;2022-09-20T07:41:15;7.43;;;4.93;;
59294;SDS011;45067;44.654;20.200;2022-09-20T07:43:46;7.10;;;4.30;;
59294;SDS011;45067;44.654;20.200;2022-09-20T07:46:15;8.80;;;4.60;;
59294;SDS011;45067;44.654;20.200;2022-09-20T07:48:41;8.27;;;5.55;;
59294;SDS011;45067;44.654;20.200;2022-09-20T07:51:08;9.57;;;4.90;;
59294;SDS011;45067;44.654;20.200;2022-09-20T07:53:35;9.40;;;5.03;;
59294;SDS011;45067;44.654;20.200;2022-09-20T07:56:12;7.80;;;4.30;;
59294;SDS011;45067;44.654;20.200;2022-09-20T07:58:40;9.35;;;5.10;;
59294;SDS011;45067;44.654;20.200;2022-09-20T08:01:08;10.82;;;4.60;;
59294;SDS011;45067;44.654;20.200;2022-09-20T08:03:34;7.95;;;4.47;;
59294;SDS011;45067;44.654;20.200;2022-09-20T08:06:01;8.10;;;3.70;;
59294;SDS011;45067;44.654;20.200;2022-09-20T08:08:30;6.32;;;3.78;;
59294;SDS011;45067;44.654;20.200;2022-09-20T08:13:38;5.95;;;3.33;;
59294;SDS011;45067;44.654;20.200;2022-09-20T08:16:06;4.95;;;3.10;;
59294;SDS011;45067;44.654;20.200;2022-09-20T08:18:33;6.50;;;3.47;;
59294;SDS011;45067;44.654;20.200;2022-09-20T08:21:03;7.80;;;3.38;;
59294;SDS011;45067;44.654;20.200;2022-09-20T08:23:32;6.45;;;3.67;;
59294;SDS011;45067;44.654;20.200;2022-09-20T08:25:58;6.70;;;3.17;;
59294;SDS011;45067;44.654;20.200;2022-09-20T08:28:24;6.32;;;3.03;;
59294;SDS011;45067;44.654;20.200;2022-09-20T08:30:50;4.88;;;3.17;;
59294;SDS011;45067;44.654;20.200;2022-09-20T08:33:16;5.80;;;3.20;;
59294;SDS011;45067;44.654;20.200;2022-09-20T08:35:42;4.57;;;2.75;;
59294;SDS011;45067;44.654;20.200;2022-09-20T08:38:09;7.00;;;3.03;;
59294;SDS011;45067;44.654;20.200;2022-09-20T08:40:35;6.47;;;2.72;;
59294;SDS011;45067;44.654;20.200;2022-09-20T08:43:03;4.97;;;2.40;;
59294;SDS011;45067;44.654;20.200;2022-09-20T08:45:30;5.45;;;2.90;;
59294;SDS011;45067;44.654;20.200;2022-09-20T08:47:58;5.20;;;2.45;;
59294;SDS011;45067;44.654;20.200;2022-09-20T08:53:28;6.18;;;2.70;;
59294;SDS011;45067;44.654;20.200;2022-09-20T08:55:55;8.00;;;2.55;;
59294;SDS011;45067;44.654;20.200;2022-09-20T08:58:23;4.97;;;2.33;;
59294;SDS011;45067;44.654;20.200;2022-09-20T09:00:50;4.35;;;2.20;;
59294;SDS011;45067;44.654;20.200;2022-09-20T09:03:17;4.30;;;2.20;;
59294;SDS011;45067;44.654;20.200;2022-09-20T09:05:48;3.55;;;2.17;;
59294;SDS011;45067;44.654;20.200;2022-09-20T09:08:34;4.28;;;1.73;;
59294;SDS011;45067;44.654;20.200;2022-09-20T09:11:02;7.68;;;2.20;;
59294;SDS011;45067;44.654;20.200;2022-09-20T09:13:50;5.07;;;2.00;;
59294;SDS011;45067;44.654;20.200;2022-09-20T09:16:19;3.75;;;1.92;;
59294;SDS011;45067;44.654;20.200;2022-09-20T09:21:50;3.17;;;1.60;;
59294;SDS011;45067;44.654;20.200;2022-09-20T09:24:16;4.10;;;1.80;;
59294;SDS011;45067;44.654;20.200;2022-09-20T09:26:44;5.32;;;2.38;;
59294;SDS011;45067;44.654;20.200;2022-09-20T09:29:14;5.20;;;2.42;;
59294;SDS011;45067;44.654;20.200;2022-09-20T09:31:40;6.95;;;2.67;;
59294;SDS011;45067;44.654;20.200;2022-09-20T09:34:25;4.93;;;1.90;;
59294;SDS011;45067;44.654;20.200;2022-09-20T09:36:51;4.00;;;1.80;;
59294;SDS011;45067;44.654;20.200;2022-09-20T09:41:47;3.67;;;1.83;;
59294;SDS011;45067;44.654;20.200;2022-09-20T09:44:23;4.07;;;2.15;;
59294;SDS011;45067;44.654;20.200;2022-09-20T09:46:49;3.03;;;1.75;;
59294;SDS011;45067;44.654;20.200;2022-09-20T09:49:27;2.85;;;2.08;;
59294;SDS011;45067;44.654;20.200;2022-09-20T09:51:59;4.07;;;1.92;;
59294;SDS011;45067;44.654;20.200;2022-09-20T09:54:30;2.30;;;1.80;;
59294;SDS011;45067;44.654;20.200;2022-09-20T10:04:51;3.78;;;1.90;;
59294;SDS011;45067;44.654;20.200;2022-09-20T10:07:34;6.60;;;2.55;;
59294;SDS011;45067;44.654;20.200;2022-09-20T10:15:27;4.80;;;2.28;;
59294;SDS011;45067;44.654;20.200;2022-09-20T10:20:23;6.55;;;2.55;;
59294;SDS011;45067;44.654;20.200;2022-09-20T10:25:39;2.85;;;1.95;;
59294;SDS011;45067;44.654;20.200;2022-09-20T10:28:14;4.15;;;2.10;;
59294;SDS011;45067;44.654;20.200;2022-09-20T10:39:11;3.17;;;2.05;;
59294;SDS011;45067;44.654;20.200;2022-09-20T10:44:35;4.10;;;1.75;;
59294;SDS011;45067;44.654;20.200;2022-09-20T10:47:14;3.85;;;1.90;;
59294;SDS011;45067;44.654;20.200;2022-09-20T10:49:54;3.60;;;2.10;;
59294;SDS011;45067;44.654;20.200;2022-09-20T10:52:32;4.63;;;3.13;;
59294;SDS011;45067;44.654;20.200;2022-09-20T11:00:20;6.93;;;3.20;;
59294;SDS011;45067;44.654;20.200;2022-09-20T11:03:07;3.78;;;1.83;;
59294;SDS011;45067;44.654;20.200;2022-09-20T11:08:25;3.13;;;1.85;;
59294;SDS011;45067;44.654;20.200;2022-09-20T11:11:15;3.50;;;1.90;;
59294;SDS011;45067;44.654;20.200;2022-09-20T11:13:40;4.13;;;2.63;;
59294;SDS011;45067;44.654;20.200;2022-09-20T11:16:41;4.30;;;2.30;;
59294;SDS011;45067;44.654;20.200;2022-09-20T11:19:00;2.95;;;1.70;;
59294;SDS011;45067;44.654;20.200;2022-09-20T11:21:47;3.10;;;1.70;;
59294;SDS011;45067;44.654;20.200;2022-09-20T11:26:43;3.65;;;1.63;;
59294;SDS011;45067;44.654;20.200;2022-09-20T11:31:42;7.32;;;2.75;;
59294;SDS011;45067;44.654;20.200;2022-09-20T11:36:57;8.52;;;2.72;;
59294;SDS011;45067;44.654;20.200;2022-09-20T11:42:00;5.05;;;2.05;;
59294;SDS011;45067;44.654;20.200;2022-09-20T11:44:28;3.28;;;2.28;;
59294;SDS011;45067;44.654;20.200;2022-09-20T11:46:59;7.43;;;1.98;;
59294;SDS011;45067;44.654;20.200;2022-09-20T11:57:25;4.13;;;1.90;;
59294;SDS011;45067;44.654;20.200;2022-09-20T11:59:56;8.93;;;1.88;;
59294;SDS011;45067;44.654;20.200;2022-09-20T12:04:52;3.00;;;1.67;;
59294;SDS011;45067;44.654;20.200;2022-09-20T12:07:28;3.35;;;1.58;;
59294;SDS011;45067;44.654;20.200;2022-09-20T12:09:58;5.05;;;1.92;;
59294;SDS011;45067;44.654;20.200;2022-09-20T12:14:54;4.40;;;1.92;;
59294;SDS011;45067;44.654;20.200;2022-09-20T12:22:51;3.30;;;1.60;;
59294;SDS011;45067;44.654;20.200;2022-09-20T12:25:37;2.90;;;1.50;;
59294;SDS011;45067;44.654;20.200;2022-09-20T12:28:11;4.57;;;2.20;;
59294;SDS011;45067;44.654;20.200;2022-09-20T12:30:38;6.93;;;5.00;;
59294;SDS011;45067;44.654;20.200;2022-09-20T12:33:17;7.40;;;4.50;;
59294;SDS011;45067;44.654;20.200;2022-09-20T12:35:56;4.95;;;3.25;;
59294;SDS011;45067;44.654;20.200;2022-09-20T12:38:26;2.70;;;1.80;;
59294;SDS011;45067;44.654;20.200;2022-09-20T12:41:03;2.65;;;1.63;;
59294;SDS011;45067;44.654;20.200;2022-09-20T12:43:30;12.32;;;1.65;;
59294;SDS011;45067;44.654;20.200;2022-09-20T12:45:57;2.42;;;1.80;;
59294;SDS011;45067;44.654;20.200;2022-09-20T12:48:23;3.53;;;1.83;;
59294;SDS011;45067;44.654;20.200;2022-09-20T12:51:00;3.75;;;2.00;;
59294;SDS011;45067;44.654;20.200;2022-09-20T12:54:01;2.55;;;1.77;;
59294;SDS011;45067;44.654;20.200;2022-09-20T12:56:30;5.20;;;2.30;;
59294;SDS011;45067;44.654;20.200;2022-09-20T12:58:58;3.22;;;2.35;;
59294;SDS011;45067;44.654;20.200;2022-09-20T13:01:30;3.03;;;2.72;;
59294;SDS011;45067;44.654;20.200;2022-09-20T13:04:38;8.75;;;2.70;;
59294;SDS011;45067;44.654;20.200;2022-09-20T13:06:42;5.03;;;3.67;;
59294;SDS011;45067;44.654;20.200;2022-09-20T13:09:09;6.00;;;2.72;;
59294;SDS011;45067;44.654;20.200;2022-09-20T13:11:51;2.88;;;2.10;;
59294;SDS011;45067;44.654;20.200;2022-09-20T13:16:51;12.98;;;3.72;;
59294;SDS011;45067;44.654;20.200;2022-09-20T13:21:55;5.43;;;3.45;;
59294;SDS011;45067;44.654;20.200;2022-09-20T13:24:23;3.78;;;2.80;;
59294;SDS011;45067;44.654;20.200;2022-09-20T13:26:49;3.15;;;1.75;;
59294;SDS011;45067;44.654;20.200;2022-09-20T13:29:33;2.45;;;2.22;;
59294;SDS011;45067;44.654;20.200;2022-09-20T13:34:44;4.28;;;2.40;;
59294;SDS011;45067;44.654;20.200;2022-09-20T13:37:15;2.97;;;2.65;;
59294;SDS011;45067;44.654;20.200;2022-09-20T13:39:51;4.72;;;2.80;;
59294;SDS011;45067;44.654;20.200;2022-09-20T13:42:17;2.10;;;1.90;;
59294;SDS011;45067;44.654;20.200;2022-09-20T13:44:44;7.57;;;2.60;;
59294;SDS011;45067;44.654;20.200;2022-09-20T13:47:26;3.03;;;2.30;;
59294;SDS011;45067;44.654;20.200;2022-09-20T13:52:43;11.18;;;6.25;;
59294;SDS011;45067;44.654;20.200;2022-09-20T13:55:20;6.03;;;3.45;;
59294;SDS011;45067;44.654;20.200;2022-09-20T13:57:49;9.80;;;5.50;;
59294;SDS011;45067;44.654;20.200;2022-09-20T14:00:16;7.75;;;3.30;;
59294;SDS011;45067;44.654;20.200;2022-09-20T14:02:42;6.82;;;3.45;;
59294;SDS011;45067;44.654;20.200;2022-09-20T14:05:17;6.78;;;4.10;;
59294;SDS011;45067;44.654;20.200;2022-09-20T14:07:44;5.10;;;3.03;;
59294;SDS011;45067;44.654;20.200;2022-09-20T14:13:13;7.32;;;5.22;;
59294;SDS011;45067;44.654;20.200;2022-09-20T14:15:41;6.35;;;2.97;;
59294;SDS011;45067;44.654;20.200;2022-09-20T14:18:11;11.23;;;6.82;;
59294;SDS011;45067;44.654;20.200;2022-09-20T14:20:42;2.85;;;1.85;;
59294;SDS011;45067;44.654;20.200;2022-09-20T14:23:18;13.35;;;9.63;;
59294;SDS011;45067;44.654;20.200;2022-09-20T14:26:04;7.63;;;4.30;;
59294;SDS011;45067;44.654;20.200;2022-09-20T14:28:30;6.43;;;3.63;;
59294;SDS011;45067;44.654;20.200;2022-09-20T14:31:03;3.08;;;1.80;;
59294;SDS011;45067;44.654;20.200;2022-09-20T14:33:30;3.72;;;1.40;;
59294;SDS011;45067;44.654;20.200;2022-09-20T14:35:56;5.40;;;1.77;;
59294;SDS011;45067;44.654;20.200;2022-09-20T14:38:23;10.13;;;3.85;;
59294;SDS011;45067;44.654;20.200;2022-09-20T14:40:51;2.38;;;1.63;;
59294;SDS011;45067;44.654;20.200;2022-09-20T14:45:50;5.18;;;2.40;;
59294;SDS011;45067;44.654;20.200;2022-09-20T14:50:44;5.43;;;2.40;;
59294;SDS011;45067;44.654;20.200;2022-09-20T14:55:38;5.63;;;2.35;;
59294;SDS011;45067;44.654;20.200;2022-09-20T14:58:10;3.72;;;1.60;;
59294;SDS011;45067;44.654;20.200;2022-09-20T15:00:53;3.15;;;1.90;;
59294;SDS011;45067;44.654;20.200;2022-09-20T15:03:38;3.35;;;2.00;;
59294;SDS011;45067;44.654;20.200;2022-09-20T15:06:08;2.30;;;1.60;;
59294;SDS011;45067;44.654;20.200;2022-09-20T15:08:34;1.92;;;1.50;;
59294;SDS011;45067;44.654;20.200;2022-09-20T15:11:01;1.38;;;1.17;;
59294;SDS011;45067;44.654;20.200;2022-09-20T15:13:27;3.05;;;1.80;;
59294;SDS011;45067;44.654;20.200;2022-09-20T15:15:53;3.50;;;1.65;;
59294;SDS011;45067;44.654;20.200;2022-09-20T15:18:21;9.35;;;6.28;;
59294;SDS011;45067;44.654;20.200;2022-09-20T15:20:48;10.32;;;5.43;;
59294;SDS011;45067;44.654;20.200;2022-09-20T15:23:14;7.90;;;4.70;;
59294;SDS011;45067;44.654;20.200;2022-09-20T15:25:40;6.38;;;3.63;;
59294;SDS011;45067;44.654;20.200;2022-09-20T15:28:09;6.90;;;4.40;;
59294;SDS011;45067;44.654;20.200;2022-09-20T15:30:35;5.45;;;3.40;;
59294;SDS011;45067;44.654;20.200;2022-09-20T15:33:04;4.20;;;2.88;;
59294;SDS011;45067;44.654;20.200;2022-09-20T15:35:30;5.45;;;2.90;;
59294;SDS011;45067;44.654;20.200;2022-09-20T15:37:56;3.10;;;1.20;;
59294;SDS011;45067;44.654;20.200;2022-09-20T15:40:22;5.75;;;1.40;;
59294;SDS011;45067;44.654;20.200;2022-09-20T15:42:53;4.43;;;1.25;;
59294;SDS011;45067;44.654;20.200;2022-09-20T15:45:19;4.35;;;1.40;;
59294;SDS011;45067;44.654;20.200;2022-09-20T15:47:45;4.55;;;1.63;;
59294;SDS011;45067;44.654;20.200;2022-09-20T15:50:11;3.55;;;1.50;;
59294;SDS011;45067;44.654;20.200;2022-09-20T15:52:38;2.70;;;1.70;;
59294;SDS011;45067;44.654;20.200;2022-09-20T15:55:08;1.77;;;1.27;;
59294;SDS011;45067;44.654;20.200;2022-09-20T15:57:34;1.52;;;1.10;;
59294;SDS011;45067;44.654;20.200;2022-09-20T16:00:01;3.45;;;1.35;;
59294;SDS011;45067;44.654;20.200;2022-09-20T16:02:28;3.45;;;1.17;;
59294;SDS011;45067;44.654;20.200;2022-09-20T16:04:55;2.08;;;1.50;;
59294;SDS011;45067;44.654;20.200;2022-09-20T16:07:22;2.80;;;1.60;;
59294;SDS011;45067;44.654;20.200;2022-09-20T16:09:53;4.65;;;1.40;;
59294;SDS011;45067;44.654;20.200;2022-09-20T16:12:20;8.88;;;2.97;;
59294;SDS011;45067;44.654;20.200;2022-09-20T16:14:46;8.38;;;4.70;;
59294;SDS011;45067;44.654;20.200;2022-09-20T16:17:12;11.20;;;4.35;;
59294;SDS011;45067;44.654;20.200;2022-09-20T16:19:38;7.95;;;4.10;;
59294;SDS011;45067;44.654;20.200;2022-09-20T16:22:06;8.05;;;3.97;;
59294;SDS011;45067;44.654;20.200;2022-09-20T16:24:33;8.52;;;4.60;;
59294;SDS011;45067;44.654;20.200;2022-09-20T16:27:00;9.27;;;4.13;;
59294;SDS011;45067;44.654;20.200;2022-09-20T16:29:27;14.38;;;6.47;;
59294;SDS011;45067;44.654;20.200;2022-09-20T16:31:54;13.00;;;7.22;;
59294;SDS011;45067;44.654;20.200;2022-09-20T16:34:22;12.52;;;6.20;;
59294;SDS011;45067;44.654;20.200;2022-09-20T16:36:54;9.43;;;5.00;;
59294;SDS011;45067;44.654;20.200;2022-09-20T16:39:22;5.85;;;3.28;;
59294;SDS011;45067;44.654;20.200;2022-09-20T16:41:52;6.05;;;3.60;;
59294;SDS011;45067;44.654;20.200;2022-09-20T16:44:18;6.35;;;3.95;;
59294;SDS011;45067;44.654;20.200;2022-09-20T16:46:45;6.32;;;3.53;;
59294;SDS011;45067;44.654;20.200;2022-09-20T16:49:11;6.13;;;3.70;;
59294;SDS011;45067;44.654;20.200;2022-09-20T16:51:38;5.75;;;3.33;;
59294;SDS011;45067;44.654;20.200;2022-09-20T16:54:09;6.32;;;3.33;;
59294;SDS011;45067;44.654;20.200;2022-09-20T16:56:36;7.22;;;3.30;;
59294;SDS011;45067;44.654;20.200;2022-09-20T16:59:03;6.75;;;2.90;;
59294;SDS011;45067;44.654;20.200;2022-09-20T17:01:30;5.30;;;3.15;;
59294;SDS011;45067;44.654;20.200;2022-09-20T17:03:57;8.75;;;3.78;;
59294;SDS011;45067;44.654;20.200;2022-09-20T17:06:23;8.65;;;5.25;;
59294;SDS011;45067;44.654;20.200;2022-09-20T17:08:53;7.20;;;3.65;;
59294;SDS011;45067;44.654;20.200;2022-09-20T17:11:20;5.45;;;3.10;;
59294;SDS011;45067;44.654;20.200;2022-09-20T17:13:47;5.78;;;3.05;;
59294;SDS011;45067;44.654;20.200;2022-09-20T17:16:19;12.93;;;7.38;;
59294;SDS011;45067;44.654;20.200;2022-09-20T17:21:12;13.75;;;9.25;;
59294;SDS011;45067;44.654;20.200;2022-09-20T17:23:40;11.23;;;7.60;;
59294;SDS011;45067;44.654;20.200;2022-09-20T17:26:09;11.55;;;7.10;;
59294;SDS011;45067;44.654;20.200;2022-09-20T17:28:41;14.82;;;7.35;;
59294;SDS011;45067;44.654;20.200;2022-09-20T17:31:08;12.88;;;7.78;;
59294;SDS011;45067;44.654;20.200;2022-09-20T17:33:35;14.40;;;8.00;;
59294;SDS011;45067;44.654;20.200;2022-09-20T17:36:02;14.23;;;8.60;;
59294;SDS011;45067;44.654;20.200;2022-09-20T17:38:31;15.75;;;8.77;;
59294;SDS011;45067;44.654;20.200;2022-09-20T17:41:07;15.20;;;10.25;;
59294;SDS011;45067;44.654;20.200;2022-09-20T17:43:35;44.58;;;28.05;;
59294;SDS011;45067;44.654;20.200;2022-09-20T17:48:31;24.77;;;15.40;;
59294;SDS011;45067;44.654;20.200;2022-09-20T17:50:58;21.23;;;10.30;;
59294;SDS011;45067;44.654;20.200;2022-09-20T17:53:34;16.60;;;8.80;;
59294;SDS011;45067;44.654;20.200;2022-09-20T17:56:01;16.38;;;9.40;;
59294;SDS011;45067;44.654;20.200;2022-09-20T17:58:27;15.77;;;10.02;;
59294;SDS011;45067;44.654;20.200;2022-09-20T18:00:53;15.93;;;9.52;;
59294;SDS011;45067;44.654;20.200;2022-09-20T18:03:23;17.88;;;9.80;;
59294;SDS011;45067;44.654;20.200;2022-09-20T18:05:50;19.98;;;11.52;;
59294;SDS011;45067;44.654;20.200;2022-09-20T18:08:17;23.75;;;14.95;;
59294;SDS011;45067;44.654;20.200;2022-09-20T18:10:55;30.67;;;16.77;;
59294;SDS011;45067;44.654;20.200;2022-09-20T18:13:23;21.77;;;11.60;;
59294;SDS011;45067;44.654;20.200;2022-09-20T18:15:51;19.52;;;11.00;;
59294;SDS011;45067;44.654;20.200;2022-09-20T18:18:18;14.95;;;8.82;;
59294;SDS011;45067;44.654;20.200;2022-09-20T18:20:45;13.27;;;9.02;;
59294;SDS011;45067;44.654;20.200;2022-09-20T18:23:13;19.13;;;11.57;;
59294;SDS011;45067;44.654;20.200;2022-09-20T18:25:39;16.42;;;10.27;;
59294;SDS011;45067;44.654;20.200;2022-09-20T18:28:24;20.13;;;11.75;;
59294;SDS011;45067;44.654;20.200;2022-09-20T18:31:02;19.33;;;9.57;;
59294;SDS011;45067;44.654;20.200;2022-09-20T18:33:29;11.10;;;6.85;;
59294;SDS011;45067;44.654;20.200;2022-09-20T18:36:02;14.75;;;8.30;;
59294;SDS011;45067;44.654;20.200;2022-09-20T18:38:28;22.60;;;12.00;;
59294;SDS011;45067;44.654;20.200;2022-09-20T18:40:58;13.45;;;8.05;;
59294;SDS011;45067;44.654;20.200;2022-09-20T18:43:29;14.85;;;8.25;;
59294;SDS011;45067;44.654;20.200;2022-09-20T18:48:21;16.92;;;9.90;;
59294;SDS011;45067;44.654;20.200;2022-09-20T18:51:01;15.80;;;10.50;;
59294;SDS011;45067;44.654;20.200;2022-09-20T18:53:28;18.85;;;10.63;;
59294;SDS011;45067;44.654;20.200;2022-09-20T18:55:55;18.23;;;12.23;;
59294;SDS011;45067;44.654;20.200;2022-09-20T18:58:22;19.30;;;9.65;;
59294;SDS011;45067;44.654;20.200;2022-09-20T19:00:51;12.68;;;8.48;;
59294;SDS011;45067;44.654;20.200;2022-09-20T19:05:50;12.73;;;7.30;;
59294;SDS011;45067;44.654;20.200;2022-09-20T19:11:15;14.60;;;7.43;;
59294;SDS011;45067;44.654;20.200;2022-09-20T19:13:49;10.73;;;6.50;;
59294;SDS011;45067;44.654;20.200;2022-09-20T19:19:17;13.43;;;7.63;;
59294;SDS011;45067;44.654;20.200;2022-09-20T19:21:55;13.23;;;7.45;;
59294;SDS011;45067;44.654;20.200;2022-09-20T19:27:22;11.93;;;6.23;;
59294;SDS011;45067;44.654;20.200;2022-09-20T19:29:49;9.15;;;4.82;;
59294;SDS011;45067;44.654;20.200;2022-09-20T19:32:16;10.15;;;6.10;;
59294;SDS011;45067;44.654;20.200;2022-09-20T19:34:45;13.75;;;7.15;;
59294;SDS011;45067;44.654;20.200;2022-09-20T19:37:27;10.70;;;6.82;;
59294;SDS011;45067;44.654;20.200;2022-09-20T19:42:38;12.40;;;6.40;;
59294;SDS011;45067;44.654;20.200;2022-09-20T19:53:09;11.38;;;7.00;;
59294;SDS011;45067;44.654;20.200;2022-09-20T19:55:36;9.50;;;6.20;;
59294;SDS011;45067;44.654;20.200;2022-09-20T19:58:02;11.95;;;7.20;;
59294;SDS011;45067;44.654;20.200;2022-09-20T20:00:29;10.52;;;6.10;;
59294;SDS011;45067;44.654;20.200;2022-09-20T20:02:56;13.70;;;8.63;;
59294;SDS011;45067;44.654;20.200;2022-09-20T20:05:22;14.32;;;8.30;;
59294;SDS011;45067;44.654;20.200;2022-09-20T20:08:10;11.68;;;6.85;;
59294;SDS011;45067;44.654;20.200;2022-09-20T20:13:30;15.70;;;7.88;;
59294;SDS011;45067;44.654;20.200;2022-09-20T20:16:17;11.63;;;7.50;;